sensor_id;sensor_type;location;lat;lon;timestamp;temperature;humidity
19007;DHT22;9636;47.382;8.480;2022-08-05T05:26:19;22.20;99.90
19007;DHT22;9636;47.382;8.480;2022-08-05T05:28:45;22.50;99.90
19007;DHT22;9636;47.382;8.480;2022-08-05T05:31:12;22.70;99.90
19007;DHT22;9636;47.382;8.480;2022-08-05T05:33:39;23.00;99.90
19007;DHT22;9636;47.382;8.480;2022-08-05T05:36:07;23.10;99.90
19007;DHT22;9636;47.382;8.480;2022-08-05T05:38:34;23.40;99.90
19007;DHT22;9636;47.382;8.480;2022-08-05T05:41:00;23.70;99.90
19007;DHT22;9636;47.382;8.480;2022-08-05T05:43:28;23.60;99.90
19007;DHT22;9636;47.382;8.480;2022-08-05T05:45:55;23.50;99.90
19007;DHT22;9636;47.382;8.480;2022-08-05T05:48:22;23.50;99.90
19007;DHT22;9636;47.382;8.480;2022-08-05T05:50:50;23.60;99.90
19007;DHT22;9636;47.382;8.480;2022-08-05T05:53:17;23.80;99.90
19007;DHT22;9636;47.382;8.480;2022-08-05T05:55:44;24.20;99.90
19007;DHT22;9636;47.382;8.480;2022-08-05T05:58:11;24.40;99.90
19007;DHT22;9636;47.382;8.480;2022-08-05T06:00:39;24.60;99.90
19007;DHT22;9636;47.382;8.480;2022-08-05T06:03:06;24.80;99.90
19007;DHT22;9636;47.382;8.480;2022-08-05T06:05:34;24.90;99.90
19007;DHT22;9636;47.382;8.480;2022-08-05T06:08:01;24.90;99.90
19007;DHT22;9636;47.382;8.480;2022-08-05T06:10:28;24.80;99.90
19007;DHT22;9636;47.382;8.480;2022-08-05T06:12:54;24.80;99.90
19007;DHT22;9636;47.382;8.480;2022-08-05T06:15:21;24.90;99.90
19007;DHT22;9636;47.382;8.480;2022-08-05T06:17:50;25.20;99.90
19007;DHT22;9636;47.382;8.480;2022-08-05T06:20:17;25.10;99.90
19007;DHT22;9636;47.382;8.480;2022-08-05T06:22:43;25.00;99.90
19007;DHT22;9636;47.382;8.480;2022-08-05T06:25:10;24.80;99.90
19007;DHT22;9636;47.382;8.480;2022-08-05T06:27:37;24.70;99.90
19007;DHT22;9636;47.382;8.480;2022-08-05T06:30:05;24.40;99.90
19007;DHT22;9636;47.382;8.480;2022-08-05T06:32:32;24.30;99.90
19007;DHT22;9636;47.382;8.480;2022-08-05T06:35:00;24.30;99.90
19007;DHT22;9636;47.382;8.480;2022-08-05T06:37:27;24.30;99.90
19007;DHT22;9636;47.382;8.480;2022-08-05T06:39:54;24.40;99.90
19007;DHT22;9636;47.382;8.480;2022-08-05T06:42:21;24.50;99.90
19007;DHT22;9636;47.382;8.480;2022-08-05T06:44:48;24.80;99.90
19007;DHT22;9636;47.382;8.480;2022-08-05T06:47:15;24.80;99.90
19007;DHT22;9636;47.382;8.480;2022-08-05T06:49:42;24.90;99.90
19007;DHT22;9636;47.382;8.480;2022-08-05T06:52:10;25.00;99.90
19007;DHT22;9636;47.382;8.480;2022-08-05T06:54:37;25.00;99.90
19007;DHT22;9636;47.382;8.480;2022-08-05T06:57:04;25.30;99.90
19007;DHT22;9636;47.382;8.480;2022-08-05T06:59:31;25.70;99.90
19007;DHT22;9636;47.382;8.480;2022-08-05T07:01:58;25.90;99.90
19007;DHT22;9636;47.382;8.480;2022-08-05T07:04:25;26.20;99.90
19007;DHT22;9636;47.382;8.480;2022-08-05T07:06:52;26.10;99.90
19007;DHT22;9636;47.382;8.480;2022-08-05T07:09:20;26.00;99.90
19007;DHT22;9636;47.382;8.480;2022-08-05T07:11:47;25.80;99.90
19007;DHT22;9636;47.382;8.480;2022-08-05T07:14:13;25.80;99.90
19007;DHT22;9636;47.382;8.480;2022-08-05T07:16:58;25.80;99.90
19007;DHT22;9636;47.382;8.480;2022-08-05T07:19:26;25.70;99.90
19007;DHT22;9636;47.382;8.480;2022-08-05T07:21:54;25.60;99.90
19007;DHT22;9636;47.382;8.480;2022-08-05T07:24:23;25.60;99.90
19007;DHT22;9636;47.382;8.480;2022-08-05T07:26:51;25.60;99.90
19007;DHT22;9636;47.382;8.480;2022-08-05T07:29:18;25.60;99.90
19007;DHT22;9636;47.382;8.480;2022-08-05T07:31:45;25.60;99.90
19007;DHT22;9636;47.382;8.480;2022-08-05T07:34:14;25.50;99.90
19007;DHT22;9636;47.382;8.480;2022-08-05T07:36:46;25.70;99.90
19007;DHT22;9636;47.382;8.480;2022-08-05T07:39:14;26.40;99.90
19007;DHT22;9636;47.382;8.480;2022-08-05T07:41:42;27.10;99.90
19007;DHT22;9636;47.382;8.480;2022-08-05T07:44:09;27.50;99.90
19007;DHT22;9636;47.382;8.480;2022-08-05T07:46:36;27.70;99.90
19007;DHT22;9636;47.382;8.480;2022-08-05T07:49:03;28.00;99.90
19007;DHT22;9636;47.382;8.480;2022-08-05T07:51:31;28.10;99.90
19007;DHT22;9636;47.382;8.480;2022-08-05T07:53:58;28.30;99.90
19007;DHT22;9636;47.382;8.480;2022-08-05T07:56:26;28.50;99.90
19007;DHT22;9636;47.382;8.480;2022-08-05T07:58:54;28.70;99.90
19007;DHT22;9636;47.382;8.480;2022-08-05T08:01:21;28.80;99.90
19007;DHT22;9636;47.382;8.480;2022-08-05T08:03:50;28.70;99.90
19007;DHT22;9636;47.382;8.480;2022-08-05T08:06:17;28.80;99.90
19007;DHT22;9636;47.382;8.480;2022-08-05T08:08:44;28.60;99.90
19007;DHT22;9636;47.382;8.480;2022-08-05T08:11:11;28.10;99.90
19007;DHT22;9636;47.382;8.480;2022-08-05T08:13:39;27.70;99.90
19007;DHT22;9636;47.382;8.480;2022-08-05T08:16:08;27.20;99.90
19007;DHT22;9636;47.382;8.480;2022-08-05T08:18:34;27.00;99.90
19007;DHT22;9636;47.382;8.480;2022-08-05T08:21:01;27.00;99.90
19007;DHT22;9636;47.382;8.480;2022-08-05T08:23:28;27.50;99.90
19007;DHT22;9636;47.382;8.480;2022-08-05T08:25:55;27.90;99.90
19007;DHT22;9636;47.382;8.480;2022-08-05T08:28:22;28.10;99.90
19007;DHT22;9636;47.382;8.480;2022-08-05T08:30:49;28.50;99.90
19007;DHT22;9636;47.382;8.480;2022-08-05T08:33:17;28.70;99.90
19007;DHT22;9636;47.382;8.480;2022-08-05T08:35:44;28.90;99.90
19007;DHT22;9636;47.382;8.480;2022-08-05T08:38:11;28.80;99.90
19007;DHT22;9636;47.382;8.480;2022-08-05T08:40:41;28.30;99.90
19007;DHT22;9636;47.382;8.480;2022-08-05T08:43:11;28.30;99.90
19007;DHT22;9636;47.382;8.480;2022-08-05T08:45:39;28.60;99.90
19007;DHT22;9636;47.382;8.480;2022-08-05T08:48:07;29.00;99.90
19007;DHT22;9636;47.382;8.480;2022-08-05T08:50:40;29.40;99.90
19007;DHT22;9636;47.382;8.480;2022-08-05T08:53:09;29.10;99.90
19007;DHT22;9636;47.382;8.480;2022-08-05T08:55:38;29.00;99.90
19007;DHT22;9636;47.382;8.480;2022-08-05T08:58:05;28.90;99.90
19007;DHT22;9636;47.382;8.480;2022-08-05T09:00:32;29.00;99.90
19007;DHT22;9636;47.382;8.480;2022-08-05T09:03:00;29.40;99.90
19007;DHT22;9636;47.382;8.480;2022-08-05T09:05:27;29.40;99.90
19007;DHT22;9636;47.382;8.480;2022-08-05T09:07:55;29.50;99.90
19007;DHT22;9636;47.382;8.480;2022-08-05T09:10:22;29.60;99.90
19007;DHT22;9636;47.382;8.480;2022-08-05T09:12:49;29.80;99.90
19007;DHT22;9636;47.382;8.480;2022-08-05T09:15:16;30.00;99.90
19007;DHT22;9636;47.382;8.480;2022-08-05T09:17:43;30.20;99.90
19007;DHT22;9636;47.382;8.480;2022-08-05T09:20:11;30.30;99.90
19007;DHT22;9636;47.382;8.480;2022-08-05T09:23:05;30.10;99.90
19007;DHT22;9636;47.382;8.480;2022-08-05T09:25:33;30.30;99.90
19007;DHT22;9636;47.382;8.480;2022-08-05T09:28:14;30.40;99.90
19007;DHT22;9636;47.382;8.480;2022-08-05T09:30:42;30.50;99.90
19007;DHT22;9636;47.382;8.480;2022-08-05T09:33:09;30.50;99.90
19007;DHT22;9636;47.382;8.480;2022-08-05T09:35:36;30.30;99.90
19007;DHT22;9636;47.382;8.480;2022-08-05T09:38:07;30.40;99.90
19007;DHT22;9636;47.382;8.480;2022-08-05T09:40:35;30.60;99.90
19007;DHT22;9636;47.382;8.480;2022-08-05T09:43:04;30.80;99.90
19007;DHT22;9636;47.382;8.480;2022-08-05T09:45:37;30.70;99.90
19007;DHT22;9636;47.382;8.480;2022-08-05T09:48:21;30.70;99.90
19007;DHT22;9636;47.382;8.480;2022-08-05T09:50:50;30.90;99.90
19007;DHT22;9636;47.382;8.480;2022-08-05T09:53:19;30.90;99.90
19007;DHT22;9636;47.382;8.480;2022-08-05T09:55:46;30.80;99.90
19007;DHT22;9636;47.382;8.480;2022-08-05T09:58:16;30.50;99.90
19007;DHT22;9636;47.382;8.480;2022-08-05T10:00:54;30.70;99.90
19007;DHT22;9636;47.382;8.480;2022-08-05T10:03:22;30.60;99.90
19007;DHT22;9636;47.382;8.480;2022-08-05T10:06:06;30.50;99.90
19007;DHT22;9636;47.382;8.480;2022-08-05T10:08:36;30.40;99.90
19007;DHT22;9636;47.382;8.480;2022-08-05T10:11:05;30.30;99.90
19007;DHT22;9636;47.382;8.480;2022-08-05T10:13:39;30.40;99.90
19007;DHT22;9636;47.382;8.480;2022-08-05T10:16:07;30.40;99.90
19007;DHT22;9636;47.382;8.480;2022-08-05T10:18:53;30.40;99.90
19007;DHT22;9636;47.382;8.480;2022-08-05T10:21:20;30.40;99.90
19007;DHT22;9636;47.382;8.480;2022-08-05T10:23:49;30.30;99.90
19007;DHT22;9636;47.382;8.480;2022-08-05T10:26:25;30.20;99.90
19007;DHT22;9636;47.382;8.480;2022-08-05T10:29:23;30.10;99.90
19007;DHT22;9636;47.382;8.480;2022-08-05T10:36:58;30.30;99.90
19007;DHT22;9636;47.382;8.480;2022-08-05T10:42:10;30.20;99.90
19007;DHT22;9636;47.382;8.480;2022-08-05T10:47:50;30.20;99.90
19007;DHT22;9636;47.382;8.480;2022-08-05T10:50:26;30.50;99.90
19007;DHT22;9636;47.382;8.480;2022-08-05T10:52:53;30.70;99.90
19007;DHT22;9636;47.382;8.480;2022-08-05T10:55:25;30.70;99.90
19007;DHT22;9636;47.382;8.480;2022-08-05T10:58:46;30.90;99.90
19007;DHT22;9636;47.382;8.480;2022-08-05T11:01:13;30.90;99.90
19007;DHT22;9636;47.382;8.480;2022-08-05T11:04:06;30.80;99.90
19007;DHT22;9636;47.382;8.480;2022-08-05T11:19:27;30.10;99.90
19007;DHT22;9636;47.382;8.480;2022-08-05T11:22:36;30.10;99.90
19007;DHT22;9636;47.382;8.480;2022-08-05T11:24:44;30.20;99.90
19007;DHT22;9636;47.382;8.480;2022-08-05T11:27:28;30.20;99.90
19007;DHT22;9636;47.382;8.480;2022-08-05T11:29:59;30.20;99.90
19007;DHT22;9636;47.382;8.480;2022-08-05T11:32:27;30.40;99.90
19007;DHT22;9636;47.382;8.480;2022-08-05T11:34:58;30.40;99.90
19007;DHT22;9636;47.382;8.480;2022-08-05T11:40:59;30.00;99.90
19007;DHT22;9636;47.382;8.480;2022-08-05T11:43:26;30.00;99.90
19007;DHT22;9636;47.382;8.480;2022-08-05T11:45:53;30.00;99.90
19007;DHT22;9636;47.382;8.480;2022-08-05T11:48:21;30.00;99.90
19007;DHT22;9636;47.382;8.480;2022-08-05T11:50:50;29.80;99.90
19007;DHT22;9636;47.382;8.480;2022-08-05T11:53:18;29.70;99.90
19007;DHT22;9636;47.382;8.480;2022-08-05T11:55:53;30.10;99.90
19007;DHT22;9636;47.382;8.480;2022-08-05T11:58:36;30.20;99.90
19007;DHT22;9636;47.382;8.480;2022-08-05T12:01:05;30.30;99.90
19007;DHT22;9636;47.382;8.480;2022-08-05T12:03:43;30.30;99.90
19007;DHT22;9636;47.382;8.480;2022-08-05T12:06:13;30.30;99.90
19007;DHT22;9636;47.382;8.480;2022-08-05T12:08:42;30.20;99.90
19007;DHT22;9636;47.382;8.480;2022-08-05T12:11:10;30.10;99.90
19007;DHT22;9636;47.382;8.480;2022-08-05T12:13:40;30.10;99.90
19007;DHT22;9636;47.382;8.480;2022-08-05T12:16:20;30.10;99.90
19007;DHT22;9636;47.382;8.480;2022-08-05T12:18:47;30.00;99.90
19007;DHT22;9636;47.382;8.480;2022-08-05T12:27:55;30.10;99.90
19007;DHT22;9636;47.382;8.480;2022-08-05T12:30:38;30.20;99.90
19007;DHT22;9636;47.382;8.480;2022-08-05T12:33:46;30.20;99.90
19007;DHT22;9636;47.382;8.480;2022-08-05T12:36:34;30.20;99.90
19007;DHT22;9636;47.382;8.480;2022-08-05T13:11:26;30.40;99.90
19007;DHT22;9636;47.382;8.480;2022-08-05T13:14:24;30.30;99.90
19007;DHT22;9636;47.382;8.480;2022-08-05T13:21:51;30.30;99.90
19007;DHT22;9636;47.382;8.480;2022-08-05T13:24:39;30.50;99.90
19007;DHT22;9636;47.382;8.480;2022-08-05T13:34:09;30.20;99.90
19007;DHT22;9636;47.382;8.480;2022-08-05T13:55:35;30.50;99.90
19007;DHT22;9636;47.382;8.480;2022-08-05T13:57:57;30.40;99.90
19007;DHT22;9636;47.382;8.480;2022-08-05T14:00:57;30.60;99.90
19007;DHT22;9636;47.382;8.480;2022-08-05T14:04:00;30.70;99.90
19007;DHT22;9636;47.382;8.480;2022-08-05T14:19:19;30.60;99.90
19007;DHT22;9636;47.382;8.480;2022-08-05T14:19:29;30.70;99.90
19007;DHT22;9636;47.382;8.480;2022-08-05T14:24:48;30.80;99.90
19007;DHT22;9636;47.382;8.480;2022-08-05T14:27:15;30.90;99.90
19007;DHT22;9636;47.382;8.480;2022-08-05T14:29:44;30.80;99.90
19007;DHT22;9636;47.382;8.480;2022-08-05T14:32:11;30.60;99.90
19007;DHT22;9636;47.382;8.480;2022-08-05T14:34:42;30.60;99.90
19007;DHT22;9636;47.382;8.480;2022-08-05T14:37:18;30.60;99.90
19007;DHT22;9636;47.382;8.480;2022-08-05T14:39:45;30.70;99.90
19007;DHT22;9636;47.382;8.480;2022-08-05T14:42:26;30.80;99.90
19007;DHT22;9636;47.382;8.480;2022-08-05T14:44:57;30.70;99.90
19007;DHT22;9636;47.382;8.480;2022-08-05T14:47:42;30.70;99.90
19007;DHT22;9636;47.382;8.480;2022-08-05T14:50:13;30.80;99.90
19007;DHT22;9636;47.382;8.480;2022-08-05T14:52:40;30.80;99.90
19007;DHT22;9636;47.382;8.480;2022-08-05T14:55:09;30.90;99.90
19007;DHT22;9636;47.382;8.480;2022-08-05T14:57:38;30.80;99.90
19007;DHT22;9636;47.382;8.480;2022-08-05T15:03:16;30.90;99.90
19007;DHT22;9636;47.382;8.480;2022-08-05T15:06:01;30.90;99.90
19007;DHT22;9636;47.382;8.480;2022-08-05T15:08:28;30.90;99.90
19007;DHT22;9636;47.382;8.480;2022-08-05T15:10:55;30.80;99.90
19007;DHT22;9636;47.382;8.480;2022-08-05T15:13:22;30.80;99.50
19007;DHT22;9636;47.382;8.480;2022-08-05T15:15:51;30.80;99.70
19007;DHT22;9636;47.382;8.480;2022-08-05T15:18:18;30.70;99.90
19007;DHT22;9636;47.382;8.480;2022-08-05T15:20:47;30.80;99.90
19007;DHT22;9636;47.382;8.480;2022-08-05T15:23:31;30.80;98.60
19007;DHT22;9636;47.382;8.480;2022-08-05T15:25:58;30.90;99.20
19007;DHT22;9636;47.382;8.480;2022-08-05T15:28:25;31.00;99.90
19007;DHT22;9636;47.382;8.480;2022-08-05T15:30:54;31.00;99.90
19007;DHT22;9636;47.382;8.480;2022-08-05T15:33:21;30.90;99.50
19007;DHT22;9636;47.382;8.480;2022-08-05T15:35:47;30.90;99.90
19007;DHT22;9636;47.382;8.480;2022-08-05T15:38:14;30.90;99.90
19007;DHT22;9636;47.382;8.480;2022-08-05T15:40:41;31.00;99.90
19007;DHT22;9636;47.382;8.480;2022-08-05T15:43:08;31.20;99.90
19007;DHT22;9636;47.382;8.480;2022-08-05T15:45:34;31.20;99.90
19007;DHT22;9636;47.382;8.480;2022-08-05T15:48:11;31.20;99.90
19007;DHT22;9636;47.382;8.480;2022-08-05T15:50:52;31.10;99.90
19007;DHT22;9636;47.382;8.480;2022-08-05T15:53:19;31.00;99.90
19007;DHT22;9636;47.382;8.480;2022-08-05T15:55:46;31.00;99.90
19007;DHT22;9636;47.382;8.480;2022-08-05T15:58:13;31.30;99.90
19007;DHT22;9636;47.382;8.480;2022-08-05T16:00:40;31.20;99.90
19007;DHT22;9636;47.382;8.480;2022-08-05T16:03:08;31.20;99.90
19007;DHT22;9636;47.382;8.480;2022-08-05T16:05:35;31.00;99.90
19007;DHT22;9636;47.382;8.480;2022-08-05T16:08:02;31.10;99.90
19007;DHT22;9636;47.382;8.480;2022-08-05T16:10:29;31.10;99.90
19007;DHT22;9636;47.382;8.480;2022-08-05T16:12:56;31.00;99.90
19007;DHT22;9636;47.382;8.480;2022-08-05T16:15:23;31.00;99.90
19007;DHT22;9636;47.382;8.480;2022-08-05T16:17:52;31.00;99.90
19007;DHT22;9636;47.382;8.480;2022-08-05T16:20:20;30.90;99.90
19007;DHT22;9636;47.382;8.480;2022-08-05T16:22:47;30.80;99.90
19007;DHT22;9636;47.382;8.480;2022-08-05T16:25:14;30.80;99.90
19007;DHT22;9636;47.382;8.480;2022-08-05T16:27:41;30.60;99.90
19007;DHT22;9636;47.382;8.480;2022-08-05T16:30:09;30.50;99.90
19007;DHT22;9636;47.382;8.480;2022-08-05T16:32:37;30.40;99.90
19007;DHT22;9636;47.382;8.480;2022-08-05T16:35:05;30.10;99.90
19007;DHT22;9636;47.382;8.480;2022-08-05T16:37:33;30.20;99.90
19007;DHT22;9636;47.382;8.480;2022-08-05T16:40:06;30.10;99.90
19007;DHT22;9636;47.382;8.480;2022-08-05T16:42:33;29.90;99.90
19007;DHT22;9636;47.382;8.480;2022-08-05T16:45:00;29.70;99.90
19007;DHT22;9636;47.382;8.480;2022-08-05T16:47:27;29.60;99.90
19007;DHT22;9636;47.382;8.480;2022-08-05T16:49:53;29.50;99.90
19007;DHT22;9636;47.382;8.480;2022-08-05T16:52:20;29.40;99.90
19007;DHT22;9636;47.382;8.480;2022-08-05T16:54:48;29.30;99.90
19007;DHT22;9636;47.382;8.480;2022-08-05T16:57:15;29.30;99.90
19007;DHT22;9636;47.382;8.480;2022-08-05T16:59:48;29.30;99.90
19007;DHT22;9636;47.382;8.480;2022-08-05T17:02:21;28.80;99.90
19007;DHT22;9636;47.382;8.480;2022-08-05T17:04:48;28.20;99.90
19007;DHT22;9636;47.382;8.480;2022-08-05T17:07:14;26.90;99.90
19007;DHT22;9636;47.382;8.480;2022-08-05T17:09:41;25.00;99.90
19007;DHT22;9636;47.382;8.480;2022-08-05T17:12:10;23.90;99.90
19007;DHT22;9636;47.382;8.480;2022-08-05T17:14:36;23.40;99.90
19007;DHT22;9636;47.382;8.480;2022-08-05T17:17:05;22.80;99.90
19007;DHT22;9636;47.382;8.480;2022-08-05T17:19:32;21.40;99.90
19007;DHT22;9636;47.382;8.480;2022-08-05T17:21:59;20.80;99.90
19007;DHT22;9636;47.382;8.480;2022-08-05T17:24:32;20.60;99.90
19007;DHT22;9636;47.382;8.480;2022-08-05T17:27:13;20.50;99.90
19007;DHT22;9636;47.382;8.480;2022-08-05T17:32:56;20.60;99.90
19007;DHT22;9636;47.382;8.480;2022-08-05T17:35:54;20.80;99.90
19007;DHT22;9636;47.382;8.480;2022-08-05T17:38:11;20.80;99.90
19007;DHT22;9636;47.382;8.480;2022-08-05T17:40:38;20.90;99.90
19007;DHT22;9636;47.382;8.480;2022-08-05T17:43:06;21.10;99.90
19007;DHT22;9636;47.382;8.480;2022-08-05T17:45:33;21.00;99.90
19007;DHT22;9636;47.382;8.480;2022-08-05T17:48:00;21.00;99.90
19007;DHT22;9636;47.382;8.480;2022-08-05T17:50:29;21.00;99.90
19007;DHT22;9636;47.382;8.480;2022-08-05T17:53:01;21.00;99.90
19007;DHT22;9636;47.382;8.480;2022-08-05T17:55:29;21.00;99.90
19007;DHT22;9636;47.382;8.480;2022-08-05T17:57:56;20.80;99.90
19007;DHT22;9636;47.382;8.480;2022-08-05T18:00:26;20.90;99.90
19007;DHT22;9636;47.382;8.480;2022-08-05T18:02:53;20.80;99.90
19007;DHT22;9636;47.382;8.480;2022-08-05T18:05:20;20.80;99.90
19007;DHT22;9636;47.382;8.480;2022-08-05T18:07:47;21.00;99.90
19007;DHT22;9636;47.382;8.480;2022-08-05T18:10:14;21.20;99.90
19007;DHT22;9636;47.382;8.480;2022-08-05T18:12:44;21.20;99.90
19007;DHT22;9636;47.382;8.480;2022-08-05T18:15:17;21.20;99.90
19007;DHT22;9636;47.382;8.480;2022-08-05T18:18:00;21.40;99.90
19007;DHT22;9636;47.382;8.480;2022-08-05T18:20:27;21.50;99.90
19007;DHT22;9636;47.382;8.480;2022-08-05T18:22:54;21.70;99.90
19007;DHT22;9636;47.382;8.480;2022-08-05T18:25:21;21.80;99.90
19007;DHT22;9636;47.382;8.480;2022-08-05T18:27:49;21.80;99.90
19007;DHT22;9636;47.382;8.480;2022-08-05T18:30:17;21.90;99.90
19007;DHT22;9636;47.382;8.480;2022-08-05T18:32:44;21.90;99.90
19007;DHT22;9636;47.382;8.480;2022-08-05T18:35:13;21.80;99.90
19007;DHT22;9636;47.382;8.480;2022-08-05T18:37:41;21.80;99.90
19007;DHT22;9636;47.382;8.480;2022-08-05T18:40:09;21.90;99.90
19007;DHT22;9636;47.382;8.480;2022-08-05T18:42:36;21.90;99.90
19007;DHT22;9636;47.382;8.480;2022-08-05T18:45:04;21.80;99.90
19007;DHT22;9636;47.382;8.480;2022-08-05T18:47:31;21.60;99.90
19007;DHT22;9636;47.382;8.480;2022-08-05T18:49:58;21.50;99.90
19007;DHT22;9636;47.382;8.480;2022-08-05T18:52:44;21.50;99.90
19007;DHT22;9636;47.382;8.480;2022-08-05T18:55:11;21.40;99.90
19007;DHT22;9636;47.382;8.480;2022-08-05T18:57:38;21.60;99.90
19007;DHT22;9636;47.382;8.480;2022-08-05T19:00:29;21.70;99.90
19007;DHT22;9636;47.382;8.480;2022-08-05T19:06:00;21.70;99.90
19007;DHT22;9636;47.382;8.480;2022-08-05T19:08:28;21.70;99.90
19007;DHT22;9636;47.382;8.480;2022-08-05T19:10:55;21.80;99.90
19007;DHT22;9636;47.382;8.480;2022-08-05T19:13:22;21.80;99.90
19007;DHT22;9636;47.382;8.480;2022-08-05T19:15:49;21.80;99.90
19007;DHT22;9636;47.382;8.480;2022-08-05T19:18:16;21.90;99.90
19007;DHT22;9636;47.382;8.480;2022-08-05T19:20:45;21.70;99.90
19007;DHT22;9636;47.382;8.480;2022-08-05T19:23:12;21.50;99.90
19007;DHT22;9636;47.382;8.480;2022-08-05T19:25:40;21.40;99.90
19007;DHT22;9636;47.382;8.480;2022-08-05T19:28:08;21.50;99.90
19007;DHT22;9636;47.382;8.480;2022-08-05T19:30:34;21.50;99.90
19007;DHT22;9636;47.382;8.480;2022-08-05T19:33:01;21.60;99.90
19007;DHT22;9636;47.382;8.480;2022-08-05T19:35:28;21.70;99.90
19007;DHT22;9636;47.382;8.480;2022-08-05T19:37:55;21.70;99.90
19007;DHT22;9636;47.382;8.480;2022-08-05T19:40:22;21.60;99.90
19007;DHT22;9636;47.382;8.480;2022-08-05T19:42:50;21.60;99.90
19007;DHT22;9636;47.382;8.480;2022-08-05T19:45:17;21.50;99.90
19007;DHT22;9636;47.382;8.480;2022-08-05T19:47:44;21.50;99.90
19007;DHT22;9636;47.382;8.480;2022-08-05T19:50:11;21.60;99.90
19007;DHT22;9636;47.382;8.480;2022-08-05T19:52:38;21.70;99.90
19007;DHT22;9636;47.382;8.480;2022-08-05T19:55:06;21.80;99.90
19007;DHT22;9636;47.382;8.480;2022-08-05T19:57:33;21.80;99.90
19007;DHT22;9636;47.382;8.480;2022-08-05T20:00:01;21.80;99.90
19007;DHT22;9636;47.382;8.480;2022-08-05T20:02:28;22.00;99.90
19007;DHT22;9636;47.382;8.480;2022-08-05T20:04:56;21.80;99.90
19007;DHT22;9636;47.382;8.480;2022-08-05T20:07:24;21.70;99.90
19007;DHT22;9636;47.382;8.480;2022-08-05T20:09:51;21.60;99.90
19007;DHT22;9636;47.382;8.480;2022-08-05T20:12:18;21.70;99.90
19007;DHT22;9636;47.382;8.480;2022-08-05T20:14:45;21.80;99.90
19007;DHT22;9636;47.382;8.480;2022-08-05T20:17:15;21.70;99.90
19007;DHT22;9636;47.382;8.480;2022-08-05T20:19:42;21.80;99.90
19007;DHT22;9636;47.382;8.480;2022-08-05T20:22:09;21.80;99.90
19007;DHT22;9636;47.382;8.480;2022-08-05T20:24:36;21.80;99.90
19007;DHT22;9636;47.382;8.480;2022-08-05T20:27:03;21.70;99.90
19007;DHT22;9636;47.382;8.480;2022-08-05T20:29:30;21.70;99.90
19007;DHT22;9636;47.382;8.480;2022-08-05T20:31:57;21.70;99.90
19007;DHT22;9636;47.382;8.480;2022-08-05T20:34:25;21.60;99.90
19007;DHT22;9636;47.382;8.480;2022-08-05T20:36:52;21.50;99.90
19007;DHT22;9636;47.382;8.480;2022-08-05T20:39:19;21.40;99.90
19007;DHT22;9636;47.382;8.480;2022-08-05T20:41:46;21.40;99.90
19007;DHT22;9636;47.382;8.480;2022-08-05T20:44:14;21.30;99.90
19007;DHT22;9636;47.382;8.480;2022-08-05T20:46:41;21.20;99.90
19007;DHT22;9636;47.382;8.480;2022-08-05T20:49:08;21.10;99.90
19007;DHT22;9636;47.382;8.480;2022-08-05T20:51:36;21.10;99.90
19007;DHT22;9636;47.382;8.480;2022-08-05T20:54:03;21.10;99.90
19007;DHT22;9636;47.382;8.480;2022-08-05T20:56:30;21.00;99.90
19007;DHT22;9636;47.382;8.480;2022-08-05T20:58:57;21.00;99.90
19007;DHT22;9636;47.382;8.480;2022-08-05T21:01:24;20.80;99.90
19007;DHT22;9636;47.382;8.480;2022-08-05T21:03:52;20.80;99.90
19007;DHT22;9636;47.382;8.480;2022-08-05T21:06:19;20.80;99.90
19007;DHT22;9636;47.382;8.480;2022-08-05T21:08:47;20.80;99.90
19007;DHT22;9636;47.382;8.480;2022-08-05T21:11:14;20.80;99.90
19007;DHT22;9636;47.382;8.480;2022-08-05T21:13:41;20.80;99.90
19007;DHT22;9636;47.382;8.480;2022-08-05T21:16:08;20.80;99.90
19007;DHT22;9636;47.382;8.480;2022-08-05T21:18:35;20.80;99.90
19007;DHT22;9636;47.382;8.480;2022-08-05T21:21:02;20.80;99.90
19007;DHT22;9636;47.382;8.480;2022-08-05T21:23:29;20.90;99.90
19007;DHT22;9636;47.382;8.480;2022-08-05T21:25:57;21.10;99.90
19007;DHT22;9636;47.382;8.480;2022-08-05T21:28:24;21.10;99.90
19007;DHT22;9636;47.382;8.480;2022-08-05T21:30:51;21.20;99.90
19007;DHT22;9636;47.382;8.480;2022-08-05T21:33:17;21.10;99.90
19007;DHT22;9636;47.382;8.480;2022-08-05T21:35:44;20.90;99.90
19007;DHT22;9636;47.382;8.480;2022-08-05T21:38:11;20.50;99.90
19007;DHT22;9636;47.382;8.480;2022-08-05T21:40:38;20.50;99.90
19007;DHT22;9636;47.382;8.480;2022-08-05T21:43:07;20.50;99.90
19007;DHT22;9636;47.382;8.480;2022-08-05T21:45:34;20.70;99.90
19007;DHT22;9636;47.382;8.480;2022-08-05T21:48:01;20.60;99.90
19007;DHT22;9636;47.382;8.480;2022-08-05T21:50:28;20.60;99.90
19007;DHT22;9636;47.382;8.480;2022-08-05T21:52:55;20.70;99.90
19007;DHT22;9636;47.382;8.480;2022-08-05T21:55:21;20.70;99.90
19007;DHT22;9636;47.382;8.480;2022-08-05T21:57:48;20.70;99.90
19007;DHT22;9636;47.382;8.480;2022-08-05T22:00:17;20.70;99.90
19007;DHT22;9636;47.382;8.480;2022-08-05T22:02:44;20.70;99.90
19007;DHT22;9636;47.382;8.480;2022-08-05T22:05:11;20.80;99.90
19007;DHT22;9636;47.382;8.480;2022-08-05T22:07:38;20.90;99.90
19007;DHT22;9636;47.382;8.480;2022-08-05T22:10:08;20.90;99.90
19007;DHT22;9636;47.382;8.480;2022-08-05T22:12:35;20.80;99.90
19007;DHT22;9636;47.382;8.480;2022-08-05T22:15:06;20.80;99.90
19007;DHT22;9636;47.382;8.480;2022-08-05T22:17:34;20.80;99.90
19007;DHT22;9636;47.382;8.480;2022-08-05T22:20:02;20.70;99.90
19007;DHT22;9636;47.382;8.480;2022-08-05T22:22:29;20.60;99.90
19007;DHT22;9636;47.382;8.480;2022-08-05T22:24:57;20.50;99.90
19007;DHT22;9636;47.382;8.480;2022-08-05T22:27:41;20.40;99.90
19007;DHT22;9636;47.382;8.480;2022-08-05T22:30:13;20.40;99.90
19007;DHT22;9636;47.382;8.480;2022-08-05T22:32:42;20.40;99.90
19007;DHT22;9636;47.382;8.480;2022-08-05T22:35:09;20.40;99.90
19007;DHT22;9636;47.382;8.480;2022-08-05T22:37:36;20.50;99.90
19007;DHT22;9636;47.382;8.480;2022-08-05T22:40:03;20.70;99.90
19007;DHT22;9636;47.382;8.480;2022-08-05T22:42:31;20.70;99.90
19007;DHT22;9636;47.382;8.480;2022-08-05T22:44:58;20.70;99.90
19007;DHT22;9636;47.382;8.480;2022-08-05T22:47:25;20.70;99.90
19007;DHT22;9636;47.382;8.480;2022-08-05T22:49:53;20.70;99.90
19007;DHT22;9636;47.382;8.480;2022-08-05T22:52:20;20.70;99.90
19007;DHT22;9636;47.382;8.480;2022-08-05T22:54:46;20.80;99.90
19007;DHT22;9636;47.382;8.480;2022-08-05T22:57:13;20.70;99.90
19007;DHT22;9636;47.382;8.480;2022-08-05T22:59:40;20.70;99.90
19007;DHT22;9636;47.382;8.480;2022-08-05T23:02:07;20.60;99.90
19007;DHT22;9636;47.382;8.480;2022-08-05T23:04:34;20.50;99.90
19007;DHT22;9636;47.382;8.480;2022-08-05T23:07:02;20.40;99.90
19007;DHT22;9636;47.382;8.480;2022-08-05T23:09:29;20.60;99.90
19007;DHT22;9636;47.382;8.480;2022-08-05T23:11:56;20.70;99.90
19007;DHT22;9636;47.382;8.480;2022-08-05T23:14:23;20.60;99.90
19007;DHT22;9636;47.382;8.480;2022-08-05T23:16:51;20.60;99.90
19007;DHT22;9636;47.382;8.480;2022-08-05T23:19:35;20.50;99.90
19007;DHT22;9636;47.382;8.480;2022-08-05T23:22:04;20.40;99.90
19007;DHT22;9636;47.382;8.480;2022-08-05T23:24:31;20.40;99.90